Time;durP1;ratioP1;P1;durP2;ratioP2;P2;SDS_P1;SDS_P2;PMS_P1;PMS_P2;Temp;Humidity;BMP_temperature;BMP_pressure;BME280_temperature;BME280_humidity;BME280_pressure;Samples;Min_cycle;Max_cycle;Signal;HPM_P1;HPM_P2
2023/03/09 00:01:41;;;;;;;1.17;1.00;;;12.00;82.70;;;;;;4974023;28;20110;-59
2023/03/09 00:04:09;;;;;;;1.10;1.00;;;12.00;82.70;;;;;;4974624;28;20046;-60
2023/03/09 00:06:34;;;;;;;1.30;0.90;;;12.00;83.00;;;;;;4974348;28;20035;-61
2023/03/09 00:09:00;;;;;;;1.55;0.80;;;11.90;82.80;;;;;;4972144;28;20049;-58
2023/03/09 00:11:26;;;;;;;1.05;0.93;;;11.90;82.70;;;;;;4963775;28;20043;-62
2023/03/09 00:13:52;;;;;;;1.05;0.95;;;11.90;82.90;;;;;;4965357;28;20558;-61
2023/03/09 00:16:20;;;;;;;1.00;0.90;;;11.90;83.10;;;;;;4964797;28;20073;-59
2023/03/09 00:18:46;;;;;;;1.13;0.80;;;11.90;83.20;;;;;;4963141;28;21785;-61
2023/03/09 00:21:34;;;;;;;1.02;0.90;;;11.90;83.30;;;;;;4970644;28;21256;-60
2023/03/09 00:23:58;;;;;;;1.10;1.00;;;11.80;83.50;;;;;;4965649;28;20494;-61
2023/03/09 00:26:23;;;;;;;0.95;0.88;;;11.80;83.20;;;;;;4968153;28;20045;-58
2023/03/09 00:28:49;;;;;;;0.80;0.63;;;11.80;83.20;;;;;;4964802;28;20800;-61
2023/03/09 00:31:15;;;;;;;1.50;0.82;;;11.80;83.30;;;;;;4957641;28;20474;-61
2023/03/09 00:33:41;;;;;;;0.70;0.70;;;11.80;83.40;;;;;;4967666;28;20054;-59
2023/03/09 00:36:06;;;;;;;2.47;0.98;;;11.80;83.50;;;;;;4966389;28;21297;-60
2023/03/09 00:38:32;;;;;;;0.73;0.60;;;11.80;84.10;;;;;;4963926;28;20031;-61
2023/03/09 00:40:57;;;;;;;0.80;0.70;;;11.60;84.10;;;;;;4967903;28;20533;-59
2023/03/09 00:43:23;;;;;;;0.95;0.65;;;11.70;84.10;;;;;;4967889;28;20045;-62
2023/03/09 00:45:49;;;;;;;1.42;0.82;;;11.80;84.30;;;;;;4966411;28;20491;-61
2023/03/09 00:48:14;;;;;;;0.80;0.80;;;11.70;84.40;;;;;;4959047;28;20051;-59
2023/03/09 00:50:40;;;;;;;0.80;0.63;;;11.80;84.60;;;;;;4969589;28;20042;-60
2023/03/09 00:53:05;;;;;;;1.20;0.70;;;11.70;84.50;;;;;;4970780;28;20043;-60
2023/03/09 00:55:31;;;;;;;0.55;0.55;;;11.80;84.60;;;;;;4968683;28;20447;-60
2023/03/09 00:57:57;;;;;;;1.40;0.80;;;11.70;84.50;;;;;;4970446;28;20453;-60
2023/03/09 01:00:22;;;;;;;1.15;0.70;;;11.80;84.70;;;;;;4968535;28;20038;-60
2023/03/09 01:02:48;;;;;;;0.70;0.60;;;11.80;84.50;;;;;;4973453;28;20038;-59
2023/03/09 01:05:13;;;;;;;0.80;0.60;;;11.80;84.30;;;;;;4970369;28;20050;-59
2023/03/09 01:07:40;;;;;;;0.75;0.60;;;11.80;84.40;;;;;;4973991;28;20117;-60
2023/03/09 01:10:06;;;;;;;0.88;0.50;;;11.80;84.30;;;;;;4969753;28;20043;-62
2023/03/09 01:12:34;;;;;;;1.15;0.50;;;11.80;84.50;;;;;;4959294;28;20073;-60
2023/03/09 01:15:00;;;;;;;0.68;0.40;;;11.80;84.30;;;;;;4964284;28;20621;-59
2023/03/09 01:17:25;;;;;;;2.15;0.47;;;11.80;84.30;;;;;;4967443;28;20522;-59
2023/03/09 01:19:51;;;;;;;0.47;0.35;;;11.80;84.50;;;;;;4963212;28;20039;-61
2023/03/09 01:22:17;;;;;;;1.25;0.35;;;11.80;84.30;;;;;;4961893;28;20333;-61
2023/03/09 01:24:42;;;;;;;0.60;0.30;;;11.80;84.10;;;;;;4962396;28;20062;-63
2023/03/09 01:27:09;;;;;;;0.30;0.30;;;11.80;83.80;;;;;;4965587;28;20450;-61
2023/03/09 01:29:35;;;;;;;1.58;0.20;;;11.80;83.60;;;;;;4964856;28;20078;-60
2023/03/09 01:32:01;;;;;;;0.43;0.25;;;11.80;83.10;;;;;;4968085;28;20063;-60
2023/03/09 01:34:26;;;;;;;0.80;0.30;;;11.80;82.30;;;;;;4964525;28;20038;-60
2023/03/09 01:36:52;;;;;;;0.20;0.20;;;11.90;81.90;;;;;;4966189;28;20037;-60
2023/03/09 01:39:18;;;;;;;0.43;0.13;;;11.90;81.50;;;;;;4963689;28;20085;-59
2023/03/09 01:41:44;;;;;;;0.28;0.20;;;11.90;81.00;;;;;;4963275;28;20089;-62
2023/03/09 01:44:13;;;;;;;0.10;0.10;;;11.90;80.40;;;;;;4968223;28;20080;-60
2023/03/09 01:46:47;;;;;;;0.30;0.20;;;11.90;79.60;;;;;;4964896;28;20038;-61
2023/03/09 01:49:24;;;;;;;0.32;0.20;;;11.90;79.50;;;;;;4963945;28;20039;-61
2023/03/09 01:52:05;;;;;;;0.17;0.10;;;11.90;79.70;;;;;;4968637;28;20030;-63
2023/03/09 01:54:46;;;;;;;2.65;0.20;;;11.90;80.10;;;;;;4963093;28;20047;-63
2023/03/09 01:57:27;;;;;;;0.10;0.10;;;11.90;79.90;;;;;;4968070;28;20149;-62
2023/03/09 01:59:55;;;;;;;0.60;0.20;;;11.80;79.90;;;;;;4947917;28;20046;-61
2023/03/09 02:02:23;;;;;;;0.10;0.00;;;11.80;79.80;;;;;;4969644;28;20070;-61
2023/03/09 02:05:03;;;;;;;0.57;0.22;;;11.80;79.60;;;;;;4970930;28;20034;-61
2023/03/09 02:07:34;;;;;;;0.60;0.30;;;11.80;79.40;;;;;;4972103;28;20035;-62
2023/03/09 02:10:10;;;;;;;0.30;0.20;;;11.70;79.30;;;;;;4967745;28;20054;-62
2023/03/09 02:12:37;;;;;;;0.60;0.20;;;11.70;79.30;;;;;;4954073;28;21138;-62
2023/03/09 02:15:03;;;;;;;0.28;0.10;;;11.70;79.10;;;;;;4970177;28;20050;-62
2023/03/09 02:17:29;;;;;;;0.22;0.20;;;11.70;79.00;;;;;;4966024;28;20145;-62
2023/03/09 02:20:19;;;;;;;1.08;0.20;;;11.70;78.90;;;;;;4963427;28;20169;-62
2023/03/09 02:22:47;;;;;;;0.85;0.30;;;11.70;78.70;;;;;;4961590;28;20043;-60
2023/03/09 02:25:37;;;;;;;3.20;0.30;;;11.70;78.60;;;;;;4962904;28;20046;-62
2023/03/09 02:28:05;;;;;;;1.38;0.20;;;11.70;77.90;;;;;;4962799;28;20043;-62
2023/03/09 02:30:35;;;;;;;0.60;0.30;;;11.70;77.90;;;;;;4961805;28;20043;-62
2023/03/09 02:33:10;;;;;;;1.25;0.30;;;11.70;77.30;;;;;;4966114;28;20042;-61
2023/03/09 02:35:35;;;;;;;;;;;11.70;77.00;;;;;;4965731;28;20109;-62
2023/03/09 02:38:01;;;;;;;0.93;0.38;;;11.70;77.10;;;;;;4970012;28;19996;-62
2023/03/09 02:40:35;;;;;;;2.15;0.40;;;11.70;77.40;;;;;;4962615;28;20042;-62
2023/03/09 02:43:03;;;;;;;1.85;0.55;;;11.70;77.90;;;;;;4968140;28;20380;-62
2023/03/09 02:45:29;;;;;;;1.25;0.45;;;11.70;78.20;;;;;;4956381;28;20039;-60
2023/03/09 02:47:56;;;;;;;1.15;0.50;;;11.70;79.30;;;;;;4968813;28;20042;-62
2023/03/09 02:50:22;;;;;;;0.70;0.30;;;11.70;79.40;;;;;;4963323;28;20043;-63
2023/03/09 02:52:48;;;;;;;0.55;0.40;;;11.70;79.70;;;;;;4964333;28;20108;-62
2023/03/09 02:55:14;;;;;;;0.43;0.30;;;11.70;79.80;;;;;;4971179;28;20038;-60
2023/03/09 02:57:41;;;;;;;0.85;0.30;;;11.70;80.00;;;;;;4968342;28;20051;-63
2023/03/09 03:00:08;;;;;;;1.05;0.50;;;11.60;80.30;;;;;;4943261;28;20038;-62
2023/03/09 03:02:35;;;;;;;0.40;0.40;;;11.60;80.30;;;;;;4962249;28;20066;-61
2023/03/09 03:05:01;;;;;;;0.80;0.50;;;11.60;80.70;;;;;;4966073;28;21151;-60
2023/03/09 03:07:26;;;;;;;0.68;0.30;;;11.50;81.00;;;;;;4969463;28;20047;-61
2023/03/09 03:09:52;;;;;;;1.20;0.40;;;11.50;80.90;;;;;;4973303;28;20043;-60
2023/03/09 03:12:18;;;;;;;1.65;0.50;;;11.50;81.10;;;;;;4963276;28;20552;-62
2023/03/09 03:14:44;;;;;;;1.25;0.40;;;11.40;81.20;;;;;;4965187;28;20039;-63
2023/03/09 03:17:10;;;;;;;2.20;0.60;;;11.40;81.50;;;;;;4963160;28;20042;-62
2023/03/09 03:19:36;;;;;;;1.40;0.40;;;11.40;81.80;;;;;;4964961;28;20065;-62
2023/03/09 03:22:02;;;;;;;0.82;0.40;;;11.40;81.90;;;;;;4969642;28;20047;-62
2023/03/09 03:24:28;;;;;;;1.83;0.40;;;11.40;82.30;;;;;;4972662;28;20062;-62
2023/03/09 03:26:54;;;;;;;1.90;0.60;;;11.40;82.40;;;;;;4966528;28;20146;-63
2023/03/09 03:29:20;;;;;;;0.68;0.50;;;11.40;82.50;;;;;;4968195;28;20153;-63
2023/03/09 03:31:45;;;;;;;1.13;0.45;;;11.40;82.90;;;;;;4969712;28;20035;-63
2023/03/09 03:34:11;;;;;;;2.05;0.60;;;11.40;83.10;;;;;;4967551;28;20351;-61
2023/03/09 03:36:36;;;;;;;1.40;0.50;;;11.30;83.20;;;;;;4970949;28;20574;-61
2023/03/09 03:39:03;;;;;;;3.47;0.50;;;11.30;83.40;;;;;;4970469;28;20478;-62
2023/03/09 03:41:29;;;;;;;1.23;0.50;;;11.30;83.30;;;;;;4969726;28;20041;-62
2023/03/09 03:43:54;;;;;;;1.73;0.40;;;11.30;83.70;;;;;;4971094;28;20597;-62
2023/03/09 03:46:20;;;;;;;2.25;0.45;;;11.30;84.00;;;;;;4973036;28;20064;-62
2023/03/09 03:48:45;;;;;;;0.93;0.50;;;11.20;83.70;;;;;;4972995;28;20113;-62
2023/03/09 03:51:11;;;;;;;1.65;0.60;;;11.20;83.70;;;;;;4970117;28;20180;-63
2023/03/09 03:53:36;;;;;;;0.77;0.45;;;11.20;83.90;;;;;;4965101;28;20042;-60
2023/03/09 03:56:03;;;;;;;1.73;0.50;;;11.20;83.80;;;;;;4971453;28;20518;-61
2023/03/09 03:58:29;;;;;;;0.60;0.40;;;11.20;83.80;;;;;;4967559;28;20163;-62
2023/03/09 04:00:54;;;;;;;1.50;0.65;;;11.10;83.60;;;;;;4969476;28;20502;-62
2023/03/09 04:03:20;;;;;;;2.38;0.60;;;11.10;83.60;;;;;;4972770;28;20042;-62
2023/03/09 04:05:46;;;;;;;2.83;0.60;;;11.10;84.10;;;;;;4965320;28;20138;-61
2023/03/09 04:08:11;;;;;;;1.42;0.38;;;11.10;84.20;;;;;;4967365;28;20067;-62
2023/03/09 04:10:40;;;;;;;3.78;0.70;;;11.10;84.00;;;;;;4969636;28;20121;-61
2023/03/09 04:13:06;;;;;;;1.85;0.40;;;11.00;84.60;;;;;;4966319;28;20038;-62
2023/03/09 04:15:32;;;;;;;1.23;0.40;;;11.00;84.30;;;;;;4969844;28;20037;-62
2023/03/09 04:17:58;;;;;;;1.23;0.30;;;11.00;84.10;;;;;;4965312;28;20051;-62
2023/03/09 04:20:23;;;;;;;1.27;0.30;;;11.00;84.00;;;;;;4964235;28;20051;-59
2023/03/09 04:22:49;;;;;;;1.10;0.40;;;11.00;84.60;;;;;;4966567;28;20550;-61
2023/03/09 04:25:15;;;;;;;1.33;0.43;;;11.00;83.70;;;;;;4967421;28;20038;-63
2023/03/09 04:27:41;;;;;;;0.82;0.25;;;11.00;83.50;;;;;;4960169;28;20161;-60
2023/03/09 04:30:08;;;;;;;0.82;0.20;;;10.90;83.30;;;;;;4968224;28;20042;-62
2023/03/09 04:32:34;;;;;;;6.25;0.30;;;10.90;83.40;;;;;;4966857;28;20067;-63
2023/03/09 04:34:59;;;;;;;1.95;0.20;;;10.90;83.40;;;;;;4967940;28;20403;-64
2023/03/09 04:37:25;;;;;;;1.50;0.20;;;10.90;83.30;;;;;;4966961;28;20096;-62
2023/03/09 04:39:51;;;;;;;1.38;0.30;;;10.80;83.30;;;;;;4970294;28;20038;-61
2023/03/09 04:42:16;;;;;;;0.40;0.10;;;10.80;83.20;;;;;;4966372;28;20077;-62
2023/03/09 04:44:42;;;;;;;18.33;7.68;;;10.80;84.00;;;;;;4967471;28;20490;-62
2023/03/09 04:47:12;;;;;;;2.78;1.60;;;10.70;83.10;;;;;;4968071;28;20045;-60
2023/03/09 04:49:38;;;;;;;0.93;0.55;;;10.70;83.40;;;;;;4971477;28;20567;-63
2023/03/09 04:52:04;;;;;;;0.90;0.35;;;10.70;83.30;;;;;;4970782;28;20045;-60
2023/03/09 04:54:30;;;;;;;0.20;0.10;;;10.60;83.40;;;;;;4964388;28;20038;-62
2023/03/09 04:56:55;;;;;;;1.65;0.60;;;10.60;83.60;;;;;;4964115;28;20220;-61
2023/03/09 04:59:21;;;;;;;1.77;0.73;;;10.60;83.60;;;;;;4962073;28;20388;-60
2023/03/09 05:01:47;;;;;;;0.30;0.30;;;10.60;83.60;;;;;;4963255;28;20035;-62
2023/03/09 05:04:12;;;;;;;0.75;0.30;;;10.60;83.50;;;;;;4970835;28;20450;-62
2023/03/09 05:06:38;;;;;;;0.50;0.15;;;10.60;83.60;;;;;;4963165;28;20045;-61
2023/03/09 05:09:04;;;;;;;0.40;0.20;;;10.50;83.80;;;;;;4965274;28;20034;-61
2023/03/09 05:11:31;;;;;;;0.40;0.40;;;10.50;83.80;;;;;;4967034;28;20061;-62
2023/03/09 05:13:57;;;;;;;0.95;0.52;;;10.50;84.50;;;;;;4974892;28;20613;-61
2023/03/09 05:16:22;;;;;;;1.17;0.30;;;10.50;83.60;;;;;;4972298;28;20046;-60
2023/03/09 05:18:49;;;;;;;1.85;0.45;;;10.50;83.70;;;;;;4968745;28;20061;-61
2023/03/09 05:21:15;;;;;;;0.47;0.40;;;10.50;83.60;;;;;;4969030;28;20030;-61
2023/03/09 05:23:40;;;;;;;0.75;0.38;;;10.50;83.60;;;;;;4962468;28;20562;-62
2023/03/09 05:26:07;;;;;;;1.15;0.70;;;10.50;83.50;;;;;;4967417;28;20533;-61
2023/03/09 05:28:37;;;;;;;0.60;0.60;;;10.50;83.60;;;;;;4964363;28;20513;-62
2023/03/09 05:31:07;;;;;;;1.33;0.40;;;10.50;83.60;;;;;;4958530;28;20043;-61
2023/03/09 05:33:33;;;;;;;0.28;0.20;;;10.50;83.60;;;;;;4971453;28;20045;-62
2023/03/09 05:35:58;;;;;;;1.20;0.20;;;10.40;83.40;;;;;;4978964;28;20043;-64
2023/03/09 05:38:24;;;;;;;1.20;0.20;;;10.40;83.40;;;;;;4981640;28;20035;-60
2023/03/09 05:40:49;;;;;;;0.40;0.20;;;10.40;83.60;;;;;;4974193;28;20792;-61
2023/03/09 05:43:15;;;;;;;0.80;0.47;;;10.40;83.60;;;;;;4975049;28;20125;-62
2023/03/09 05:45:40;;;;;;;0.20;0.20;;;10.40;83.60;;;;;;4971761;28;20039;-61
2023/03/09 05:48:06;;;;;;;1.00;0.10;;;10.40;83.60;;;;;;4971466;28;20076;-62
2023/03/09 05:50:32;;;;;;;1.23;0.73;;;10.40;83.60;;;;;;4972636;28;20038;-62
2023/03/09 05:52:58;;;;;;;0.40;0.30;;;10.40;83.60;;;;;;4974540;28;20039;-59
2023/03/09 05:55:24;;;;;;;0.20;0.20;;;10.40;83.60;;;;;;4973890;28;20514;-61
2023/03/09 05:57:49;;;;;;;0.90;0.20;;;10.40;83.60;;;;;;4970384;28;20044;-61
2023/03/09 06:00:16;;;;;;;0.65;0.10;;;10.40;83.50;;;;;;4972183;28;20062;-59
2023/03/09 06:02:42;;;;;;;0.90;0.22;;;10.40;83.30;;;;;;4974646;28;20494;-61
2023/03/09 06:05:07;;;;;;;0.73;0.60;;;10.30;83.10;;;;;;4974085;28;20053;-60
2023/03/09 06:07:33;;;;;;;1.15;0.55;;;10.40;83.20;;;;;;4973114;28;20098;-61
2023/03/09 06:09:58;;;;;;;0.52;0.45;;;10.30;83.20;;;;;;4971609;28;20332;-59
2023/03/09 06:12:25;;;;;;;0.40;0.40;;;10.30;83.20;;;;;;4971653;28;20035;-61
2023/03/09 06:14:52;;;;;;;1.83;0.45;;;10.30;83.20;;;;;;4973669;28;20565;-57
2023/03/09 06:17:18;;;;;;;0.77;0.50;;;10.30;83.30;;;;;;4974428;28;20066;-60
2023/03/09 06:19:43;;;;;;;0.30;0.30;;;10.30;83.30;;;;;;4974001;28;20042;-62
2023/03/09 06:22:09;;;;;;;0.65;0.40;;;10.30;83.30;;;;;;4974584;28;20042;-63
2023/03/09 06:24:35;;;;;;;0.93;0.73;;;10.30;83.20;;;;;;4971990;28;20043;-62
2023/03/09 06:27:01;;;;;;;5.07;0.90;;;10.30;83.20;;;;;;4974439;28;20120;-61
2023/03/09 06:29:27;;;;;;;1.85;0.90;;;10.20;83.10;;;;;;4971875;28;20122;-61
2023/03/09 06:31:53;;;;;;;0.40;0.40;;;10.20;83.10;;;;;;4972571;28;20759;-61
2023/03/09 06:34:18;;;;;;;1.17;0.50;;;10.30;83.10;;;;;;4972134;28;20038;-60
2023/03/09 06:36:44;;;;;;;1.15;0.30;;;10.20;83.00;;;;;;4970707;28;20510;-61
2023/03/09 06:39:10;;;;;;;0.85;0.30;;;10.20;83.00;;;;;;4972606;28;20378;-61
2023/03/09 06:41:36;;;;;;;0.82;0.20;;;10.20;83.00;;;;;;4975476;28;20067;-61
2023/03/09 06:44:02;;;;;;;2.17;0.50;;;10.20;82.90;;;;;;4974106;28;20627;-60
2023/03/09 06:46:28;;;;;;;1.38;0.45;;;10.20;82.90;;;;;;4974590;28;20039;-58
2023/03/09 06:48:54;;;;;;;1.33;0.50;;;10.20;82.90;;;;;;4979776;28;20053;-59
2023/03/09 06:51:20;;;;;;;2.25;0.32;;;10.20;82.90;;;;;;4976752;28;20046;-62
2023/03/09 06:53:46;;;;;;;0.52;0.40;;;10.20;82.90;;;;;;4976487;28;21314;-61
2023/03/09 06:56:11;;;;;;;0.60;0.30;;;10.20;83.00;;;;;;4980706;28;20046;-60
2023/03/09 06:58:37;;;;;;;0.98;0.30;;;10.20;83.00;;;;;;4980001;28;20117;-61
2023/03/09 07:01:07;;;;;;;1.25;0.25;;;10.20;83.10;;;;;;4981517;28;20497;-61
2023/03/09 07:03:33;;;;;;;1.17;0.30;;;10.20;83.30;;;;;;4980971;28;20512;-61
2023/03/09 07:05:58;;;;;;;1.23;0.22;;;10.20;84.10;;;;;;4981074;28;20057;-61
2023/03/09 07:08:24;;;;;;;1.25;0.30;;;10.20;83.40;;;;;;4980417;28;20035;-61
2023/03/09 07:10:49;;;;;;;1.25;0.30;;;10.20;83.60;;;;;;4977659;28;20031;-62
2023/03/09 07:13:15;;;;;;;1.17;0.20;;;10.20;83.60;;;;;;4980295;28;20506;-60
2023/03/09 07:15:41;;;;;;;1.13;0.30;;;10.20;83.80;;;;;;4978108;28;20031;-60
2023/03/09 07:18:07;;;;;;;1.42;0.30;;;10.30;84.00;;;;;;4979127;28;20426;-62
2023/03/09 07:20:33;;;;;;;0.80;0.30;;;10.30;84.00;;;;;;4978898;28;20034;-60
2023/03/09 07:22:58;;;;;;;0.40;0.30;;;10.30;84.10;;;;;;4978381;28;20039;-61
2023/03/09 07:25:24;;;;;;;0.75;0.30;;;10.30;84.00;;;;;;4975481;28;20043;-61
2023/03/09 07:27:49;;;;;;;1.48;0.32;;;10.40;84.10;;;;;;4973672;28;20053;-60
2023/03/09 07:30:15;;;;;;;0.73;0.30;;;10.40;84.10;;;;;;4976054;28;20092;-61
2023/03/09 07:32:41;;;;;;;1.20;0.30;;;10.40;84.10;;;;;;4976169;28;20074;-60
2023/03/09 07:35:07;;;;;;;1.80;0.52;;;10.50;84.20;;;;;;4975893;28;20074;-63
2023/03/09 07:37:33;;;;;;;1.55;0.40;;;10.50;84.10;;;;;;4970085;28;20061;-62
2023/03/09 07:39:58;;;;;;;0.47;0.30;;;10.50;84.00;;;;;;4975002;28;20043;-61
2023/03/09 07:42:24;;;;;;;0.82;0.40;;;10.60;84.00;;;;;;4975893;28;20105;-62
2023/03/09 07:44:49;;;;;;;1.23;0.52;;;10.60;83.90;;;;;;4975909;28;20081;-62
2023/03/09 07:47:15;;;;;;;0.93;0.43;;;10.60;83.80;;;;;;4975231;28;20038;-61
2023/03/09 07:49:40;;;;;;;2.38;0.57;;;10.60;83.60;;;;;;4974735;28;20038;-60
2023/03/09 07:52:06;;;;;;;0.82;0.30;;;10.70;83.50;;;;;;4977508;28;20035;-59
2023/03/09 07:54:33;;;;;;;1.75;0.50;;;10.70;83.30;;;;;;4972658;28;20284;-61
2023/03/09 07:56:58;;;;;;;1.13;0.40;;;10.70;83.20;;;;;;4974121;28;20067;-60
2023/03/09 07:59:24;;;;;;;1.15;0.30;;;10.70;83.20;;;;;;4975325;28;20121;-62
2023/03/09 08:01:50;;;;;;;2.65;0.30;;;10.70;83.10;;;;;;4975699;28;20062;-60
2023/03/09 08:04:16;;;;;;;2.08;0.43;;;10.80;83.10;;;;;;4976271;28;20545;-61
2023/03/09 08:06:42;;;;;;;2.10;0.38;;;10.80;83.10;;;;;;4973389;28;20503;-62
2023/03/09 08:09:12;;;;;;;0.88;0.40;;;10.90;83.00;;;;;;4973217;28;20053;-61
2023/03/09 08:11:38;;;;;;;4.22;0.60;;;11.00;83.80;;;;;;4975408;28;20394;-61
2023/03/09 08:14:03;;;;;;;2.53;0.50;;;11.00;82.60;;;;;;4977068;28;20104;-62
2023/03/09 08:16:29;;;;;;;4.22;0.60;;;11.10;82.60;;;;;;4974243;28;20106;-61
2023/03/09 08:18:55;;;;;;;3.72;0.50;;;11.10;82.50;;;;;;4975113;28;20035;-61
2023/03/09 08:21:21;;;;;;;2.88;0.65;;;11.20;82.10;;;;;;4974681;28;20023;-60
2023/03/09 08:23:46;;;;;;;2.25;0.60;;;11.30;81.80;;;;;;4976043;28;20035;-60
2023/03/09 08:26:14;;;;;;;1.30;0.50;;;11.30;81.50;;;;;;4973632;28;20031;-60
2023/03/09 08:28:40;;;;;;;2.63;0.60;;;11.40;81.00;;;;;;4974368;28;20053;-62
2023/03/09 08:31:08;;;;;;;5.00;0.68;;;11.40;80.80;;;;;;4974680;28;20038;-60
2023/03/09 08:33:34;;;;;;;2.15;0.68;;;11.40;80.80;;;;;;4974719;28;20406;-60
2023/03/09 08:36:08;;;;;;;1.88;0.50;;;11.40;80.80;;;;;;4974527;28;20041;-59
2023/03/09 08:38:34;;;;;;;3.95;0.80;;;11.50;80.50;;;;;;4971409;28;20064;-62
2023/03/09 08:40:59;;;;;;;3.10;0.80;;;11.50;80.30;;;;;;4975754;28;20669;-60
2023/03/09 08:43:25;;;;;;;2.75;0.70;;;11.50;80.30;;;;;;4973415;28;20498;-61
2023/03/09 08:45:52;;;;;;;3.08;0.60;;;11.60;80.10;;;;;;4973887;28;20438;-61
2023/03/09 08:48:17;;;;;;;4.75;0.90;;;11.60;80.20;;;;;;4973126;28;20030;-61
2023/03/09 08:50:43;;;;;;;2.92;0.90;;;11.70;80.10;;;;;;4974987;28;20035;-62
2023/03/09 08:53:09;;;;;;;3.40;0.70;;;11.70;79.60;;;;;;4974652;28;20038;-62
2023/03/09 08:55:34;;;;;;;4.78;1.00;;;11.80;79.30;;;;;;4974892;28;20038;-61
2023/03/09 08:58:00;;;;;;;6.43;1.00;;;11.80;79.10;;;;;;4973534;28;20049;-62
2023/03/09 09:00:25;;;;;;;4.40;0.98;;;11.90;78.80;;;;;;4976993;28;20033;-62
2023/03/09 09:02:51;;;;;;;3.97;0.80;;;11.90;78.60;;;;;;4968909;28;20125;-60
2023/03/09 09:05:16;;;;;;;3.25;1.00;;;12.00;77.90;;;;;;4976473;28;20560;-61
2023/03/09 09:07:42;;;;;;;5.70;0.77;;;12.00;76.60;;;;;;4978503;28;20038;-64
2023/03/09 09:10:08;;;;;;;2.90;0.60;;;12.00;76.60;;;;;;4980830;28;20392;-63
2023/03/09 09:12:37;;;;;;;5.47;0.95;;;12.10;76.80;;;;;;4975204;28;20034;-61
2023/03/09 09:15:04;;;;;;;4.68;1.00;;;12.10;77.10;;;;;;4978897;28;20081;-61
2023/03/09 09:17:30;;;;;;;5.10;1.00;;;12.20;77.50;;;;;;4978313;28;20576;-60
2023/03/09 09:19:56;;;;;;;2.25;0.60;;;12.20;76.70;;;;;;4978975;28;20041;-59
2023/03/09 09:22:22;;;;;;;4.07;0.90;;;12.30;76.80;;;;;;4979102;28;20548;-62
2023/03/09 09:24:49;;;;;;;5.30;0.60;;;12.30;76.50;;;;;;4975380;28;20046;-62
2023/03/09 09:27:14;;;;;;;2.72;0.80;;;12.40;76.00;;;;;;4976398;28;20114;-60
2023/03/09 09:29:40;;;;;;;3.17;0.57;;;12.40;75.40;;;;;;4973995;28;20133;-60
2023/03/09 09:32:08;;;;;;;4.38;0.90;;;12.40;74.90;;;;;;4975986;28;20037;-61
2023/03/09 09:34:34;;;;;;;4.95;0.88;;;12.50;74.30;;;;;;4974203;28;20042;-61
2023/03/09 09:37:01;;;;;;;4.85;1.02;;;12.50;74.50;;;;;;4973532;28;20589;-60
2023/03/09 09:39:28;;;;;;;3.75;1.10;;;12.50;74.20;;;;;;4969615;28;20581;-61
2023/03/09 09:41:57;;;;;;;3.10;1.33;;;12.50;74.40;;;;;;4974035;28;20562;-58
2023/03/09 09:44:28;;;;;;;2.17;0.85;;;12.60;74.80;;;;;;4975522;28;20113;-59
2023/03/09 09:46:55;;;;;;;5.50;1.10;;;12.60;75.10;;;;;;4974782;28;20252;-61
2023/03/09 09:49:24;;;;;;;2.15;0.63;;;12.70;74.20;;;;;;4973623;28;20121;-61
2023/03/09 09:52:02;;;;;;;3.47;0.68;;;12.70;74.20;;;;;;4973664;28;20094;-61
2023/03/09 09:54:49;;;;;;;2.70;0.80;;;12.80;73.80;;;;;;4973277;28;20038;-61
2023/03/09 09:57:23;;;;;;;2.38;0.75;;;12.80;73.50;;;;;;4976739;28;20472;-60
2023/03/09 10:00:01;;;;;;;4.13;0.87;;;12.80;74.20;;;;;;4971622;28;20038;-59
2023/03/09 10:02:58;;;;;;;3.00;0.60;;;12.80;73.30;;;;;;4975220;28;20038;-61
2023/03/09 10:05:44;;;;;;;2.55;0.65;;;12.80;73.00;;;;;;4974336;28;20045;-60
2023/03/09 10:08:25;;;;;;;3.25;1.13;;;12.80;71.70;;;;;;4976769;28;20287;-60
2023/03/09 10:10:51;;;;;;;4.22;1.00;;;12.80;72.20;;;;;;4972729;28;20038;-61
2023/03/09 10:13:46;;;;;;;6.05;1.10;;;12.80;71.20;;;;;;4975611;28;20411;-61
2023/03/09 10:16:41;;;;;;;2.55;0.80;;;12.90;71.40;;;;;;4971121;28;20047;-61
2023/03/09 10:19:28;;;;;;;7.25;3.45;;;12.90;70.20;;;;;;4979065;28;20070;-59
2023/03/09 10:22:06;;;;;;;5.55;1.15;;;12.90;71.40;;;;;;4976735;28;20047;-60
2023/03/09 10:24:40;;;;;;;5.55;2.65;;;12.90;71.60;;;;;;4973209;28;20039;-62
2023/03/09 10:27:26;;;;;;;5.25;1.85;;;12.90;72.00;;;;;;4978785;28;20409;-60
2023/03/09 10:30:23;;;;;;;9.90;6.05;;;13.00;72.00;;;;;;4977861;28;20038;-60
2023/03/09 10:32:53;;;;;;;5.00;2.15;;;13.00;71.50;;;;;;4978780;28;20027;-61
2023/03/09 10:35:38;;;;;;;4.78;1.63;;;13.10;72.00;;;;;;4976531;28;20530;-61
2023/03/09 10:38:04;;;;;;;6.22;0.80;;;13.10;71.00;;;;;;4978237;28;20039;-59
2023/03/09 10:40:36;;;;;;;4.93;0.98;;;13.20;71.00;;;;;;4975515;28;20100;-60
2023/03/09 10:43:07;;;;;;;2.92;0.80;;;13.20;68.90;;;;;;4978936;28;20091;-60
2023/03/09 10:45:32;;;;;;;3.78;0.80;;;13.30;69.50;;;;;;4978082;28;20042;-59
2023/03/09 10:48:05;;;;;;;2.58;0.75;;;13.30;70.00;;;;;;4979265;28;20046;-57
2023/03/09 10:50:36;;;;;;;4.70;1.08;;;13.40;70.40;;;;;;4979996;28;20042;-61
2023/03/09 10:53:22;;;;;;;2.38;0.80;;;13.40;69.00;;;;;;4976394;28;20035;-61
2023/03/09 10:55:48;;;;;;;4.07;0.77;;;13.50;67.60;;;;;;4976581;28;20038;-59
2023/03/09 10:58:21;;;;;;;4.60;0.90;;;13.50;68.50;;;;;;4974622;28;20046;-62
2023/03/09 11:00:59;;;;;;;2.75;1.27;;;13.60;68.40;;;;;;4978403;28;20043;-61
2023/03/09 11:03:36;;;;;;;2.70;0.82;;;13.60;68.00;;;;;;4976723;28;20490;-62
2023/03/09 11:06:17;;;;;;;3.08;1.27;;;13.70;65.30;;;;;;4976565;28;20265;-61
2023/03/09 11:08:52;;;;;;;9.68;1.08;;;13.70;63.90;;;;;;4975630;28;20050;-61
2023/03/09 11:11:24;;;;;;;3.20;0.77;;;13.70;65.70;;;;;;4977974;28;20521;-60
2023/03/09 11:13:51;;;;;;;2.53;0.50;;;13.70;65.60;;;;;;4980452;28;20062;-59
2023/03/09 11:16:21;;;;;;;5.90;0.70;;;13.70;66.40;;;;;;4980204;28;20030;-59
2023/03/09 11:18:48;;;;;;;2.72;0.90;;;13.80;66.10;;;;;;4979650;28;20046;-58
2023/03/09 11:21:23;;;;;;;6.35;0.75;;;13.90;65.30;;;;;;4980620;28;20068;-62
2023/03/09 11:23:53;;;;;;;4.65;0.63;;;13.90;61.40;;;;;;4977605;28;20034;-60
2023/03/09 11:26:29;;;;;;;3.47;0.75;;;13.90;63.10;;;;;;4978278;28;20571;-60
2023/03/09 11:29:01;;;;;;;3.70;0.75;;;14.00;62.00;;;;;;4976796;28;20041;-62
2023/03/09 11:31:43;;;;;;;5.25;0.93;;;14.00;62.00;;;;;;4978523;28;20030;-61
2023/03/09 11:34:27;;;;;;;4.03;0.70;;;14.00;62.90;;;;;;4978350;28;20122;-60
2023/03/09 11:37:12;;;;;;;1.77;0.57;;;14.10;63.30;;;;;;4974684;28;20597;-61
2023/03/09 11:40:00;;;;;;;2.03;0.63;;;14.20;62.50;;;;;;4974366;28;20031;-62
2023/03/09 11:42:38;;;;;;;4.03;0.90;;;14.30;62.60;;;;;;4977010;28;20035;-61
2023/03/09 11:45:12;;;;;;;2.45;0.60;;;14.30;62.30;;;;;;4977149;28;20129;-60
2023/03/09 11:47:47;;;;;;;4.57;1.50;;;14.40;60.70;;;;;;4975287;28;20494;-59
2023/03/09 11:50:20;;;;;;;4.35;1.50;;;14.40;61.70;;;;;;4977600;28;20054;-60
2023/03/09 11:53:00;;;;;;;4.10;1.92;;;14.50;62.00;;;;;;4977303;28;20034;-60
2023/03/09 11:55:34;;;;;;;3.67;0.77;;;14.60;61.50;;;;;;4976440;28;20058;-62
2023/03/09 11:58:04;;;;;;;2.80;0.70;;;14.60;61.70;;;;;;4976157;28;20047;-61
2023/03/09 12:00:33;;;;;;;2.15;0.57;;;14.70;61.50;;;;;;4975398;28;20061;-62
2023/03/09 12:03:02;;;;;;;1.42;0.50;;;14.80;61.50;;;;;;4975574;28;20142;-60
2023/03/09 12:05:34;;;;;;;2.10;0.50;;;14.90;61.30;;;;;;4976973;28;20065;-61
2023/03/09 12:08:22;;;;;;;2.17;0.65;;;14.90;60.60;;;;;;4976338;28;20460;-61
2023/03/09 12:10:56;;;;;;;3.47;0.40;;;15.00;60.50;;;;;;4975640;28;20042;-61
2023/03/09 12:13:26;;;;;;;3.45;0.55;;;15.00;60.90;;;;;;4977324;28;20039;-60
2023/03/09 12:16:06;;;;;;;1.77;0.50;;;15.00;61.20;;;;;;4974189;28;20035;-61
2023/03/09 12:18:39;;;;;;;1.63;0.40;;;15.10;60.30;;;;;;4974305;28;20063;-61
2023/03/09 12:21:08;;;;;;;2.63;0.50;;;15.10;59.90;;;;;;4974324;28;20579;-60
2023/03/09 12:23:36;;;;;;;2.03;0.40;;;15.10;60.90;;;;;;4973748;28;20050;-60
2023/03/09 12:26:02;;;;;;;2.80;0.40;;;15.00;60.50;;;;;;4975029;28;20054;-61
2023/03/09 12:28:29;;;;;;;1.88;0.30;;;15.00;60.70;;;;;;4975779;28;20041;-62
2023/03/09 12:30:57;;;;;;;2.17;0.47;;;14.90;60.60;;;;;;4976434;28;20042;-61
2023/03/09 12:33:40;;;;;;;2.15;0.32;;;14.90;60.90;;;;;;4977575;28;20038;-62
2023/03/09 12:36:28;;;;;;;2.25;0.40;;;14.80;60.50;;;;;;4976896;28;20062;-60
2023/03/09 12:39:22;;;;;;;4.00;0.70;;;14.80;60.80;;;;;;4974570;28;20062;-61
2023/03/09 12:42:10;;;;;;;2.55;0.50;;;14.70;61.30;;;;;;4978757;28;20031;-65
2023/03/09 12:44:51;;;;;;;1.83;0.28;;;14.70;60.00;;;;;;4962635;28;20039;-63
2023/03/09 12:47:19;;;;;;;1.55;0.50;;;14.70;60.00;;;;;;4974190;28;20240;-62
2023/03/09 12:49:48;;;;;;;4.50;0.63;;;14.70;60.00;;;;;;4973692;28;20114;-62
2023/03/09 12:52:28;;;;;;;2.88;0.40;;;14.70;60.60;;;;;;4977754;28;20035;-61
2023/03/09 12:55:12;;;;;;;1.45;0.45;;;14.70;60.80;;;;;;4971501;28;20039;-61
2023/03/09 12:57:37;;;;;;;1.27;0.40;;;14.60;61.10;;;;;;4974837;28;20054;-62